Time;durP1;ratioP1;P1;durP2;ratioP2;P2;SDS_P1;SDS_P2;PMS_P1;PMS_P2;Temp;Humidity;BMP_temperature;BMP_pressure;BME280_temperature;BME280_humidity;BME280_pressure;Samples;Min_cycle;Max_cycle;Signal;HPM_P1;HPM_P2
2021/08/05 00:01:52;;;;;;;15.13;5.00;;;;;;;26.86;67.65;99721.41;5114528;28;20024;-80
2021/08/05 00:04:23;;;;;;;12.82;4.78;;;;;;;26.79;67.87;99707.50;5114205;28;20473;-78
2021/08/05 00:06:54;;;;;;;16.48;5.18;;;;;;;26.79;68.41;99714.00;5114412;28;20023;-82
2021/08/05 00:09:22;;;;;;;14.02;5.07;;;;;;;26.77;68.39;99730.03;5114070;28;20084;-80
2021/08/05 00:11:51;;;;;;;11.68;4.93;;;;;;;26.77;68.91;99721.47;5113874;28;20042;-81
2021/08/05 00:14:21;;;;;;;17.80;5.32;;;;;;;26.76;69.28;99734.94;5114532;28;20058;-80
2021/08/05 00:16:50;;;;;;;15.77;4.65;;;;;;;26.76;69.96;99739.88;5113905;28;20031;-78
2021/08/05 00:19:15;;;;;;;16.05;5.50;;;;;;;26.70;70.35;99758.94;5113401;28;20051;-79
2021/08/05 00:21:44;;;;;;;13.52;5.22;;;;;;;26.72;69.92;99765.72;5130939;27;20038;-81
2021/08/05 00:24:13;;;;;;;20.38;5.82;;;;;;;26.67;70.24;99763.53;5130963;27;20030;-80
2021/08/05 00:26:43;;;;;;;12.55;5.03;;;;;;;26.56;71.11;99761.22;5114447;28;20370;-79
2021/08/05 00:29:09;;;;;;;16.48;5.22;;;;;;;26.60;71.08;99750.41;5113714;28;20031;-78
2021/08/05 00:31:35;;;;;;;13.73;5.35;;;;;;;26.62;71.73;99742.16;5113864;28;20081;-82
2021/08/05 00:34:09;;;;;;;10.10;5.95;;;;;;;26.69;71.99;99765.91;5115072;28;20485;-79
2021/08/05 00:36:35;;;;;;;14.60;6.32;;;;;;;26.69;72.26;99780.19;5113530;28;20118;-79
2021/08/05 00:39:03;;;;;;;12.82;5.78;;;;;;;26.57;73.14;99742.81;5114078;28;20055;-78
2021/08/05 00:41:34;;;;;;;15.77;5.95;;;;;;;26.57;73.50;99693.53;5130737;27;20035;-81
2021/08/05 00:44:01;;;;;;;15.82;5.63;;;;;;;26.45;74.70;99575.56;5114235;28;20471;-79
2021/08/05 00:46:30;;;;;;;14.20;5.97;;;;;;;26.39;75.11;99586.03;5113472;28;20462;-78
2021/08/05 00:48:58;;;;;;;15.50;5.13;;;;;;;26.39;75.10;99666.66;5113768;28;20054;-81
2021/08/05 00:51:29;;;;;;;14.32;5.72;;;;;;;26.51;75.08;99707.66;5113621;28;20030;-79
2021/08/05 00:53:57;;;;;;;15.40;5.63;;;;;;;26.51;74.50;99684.06;5113961;28;20035;-81
2021/08/05 00:56:25;;;;;;;16.73;5.93;;;;;;;26.47;74.28;99681.38;5113656;28;20493;-79
2021/08/05 00:58:56;;;;;;;11.57;5.55;;;;;;;26.53;73.99;99707.19;5113401;28;20122;-80
2021/08/05 01:01:34;;;;;;;10.13;5.07;;;;;;;26.52;74.14;99703.53;5130864;27;20076;-79
2021/08/05 01:04:03;;;;;;;17.50;5.63;;;;;;;26.48;74.30;99685.84;5130161;27;20028;-80
2021/08/05 01:06:34;;;;;;;20.90;5.45;;;;;;;26.49;73.90;99681.69;5113023;28;20076;-81
2021/08/05 01:09:28;;;;;;;10.15;5.35;;;;;;;26.54;73.87;99672.47;5113944;28;20472;-79
2021/08/05 01:12:16;;;;;;;14.80;5.70;;;;;;;26.41;74.53;99634.03;5113082;28;20027;-81
2021/08/05 01:14:52;;;;;;;12.68;5.68;;;;;;;26.53;74.31;99682.31;5113961;28;20118;-82
2021/08/05 01:17:22;;;;;;;17.90;5.95;;;;;;;26.51;74.40;99682.00;5130016;27;20080;-81
2021/08/05 01:19:52;;;;;;;16.98;5.75;;;;;;;26.34;74.71;99675.09;5113926;28;20028;-81
2021/08/05 01:22:27;;;;;;;8.90;5.38;;;;;;;26.49;74.22;99681.69;5114644;28;20039;-79
2021/08/05 01:25:10;;;;;;;15.27;5.15;;;;;;;26.51;73.53;99690.56;5112846;28;20035;-82
2021/08/05 01:27:41;;;;;;;13.35;5.00;;;;;;;26.51;73.31;99690.56;5113915;28;20078;-80
2021/08/05 01:30:10;;;;;;;12.93;5.20;;;;;;;26.53;73.07;99685.16;5130348;27;20070;-81
2021/08/05 01:32:36;;;;;;;12.05;4.72;;;;;;;26.34;74.35;99698.69;5114172;28;20087;-82
2021/08/05 01:35:07;;;;;;;18.40;6.50;;;;;;;26.34;74.26;99692.22;5112966;28;20031;-79
2021/08/05 01:37:40;;;;;;;15.68;5.95;;;;;;;26.43;74.36;99706.47;5110865;28;20031;-79
2021/08/05 01:40:08;;;;;;;13.80;5.85;;;;;;;26.53;74.51;99708.00;5119893;28;20157;-81
2021/08/05 01:42:37;;;;;;;12.15;5.65;;;;;;;26.36;75.20;99690.44;5133290;27;20463;-79
2021/08/05 01:45:05;;;;;;;17.63;6.07;;;;;;;26.47;75.25;99712.75;5119469;28;20016;-80
2021/08/05 01:47:38;;;;;;;16.40;5.97;;;;;;;26.41;75.87;99708.16;5102604;28;20096;-80
2021/08/05 01:50:09;;;;;;;15.65;6.35;;;;;;;26.41;76.34;99713.88;5119839;28;20119;-80
2021/08/05 01:52:39;;;;;;;14.35;6.00;;;;;;;26.40;76.72;99713.09;5119248;28;20100;-80
2021/08/05 01:55:09;;;;;;;14.90;6.40;;;;;;;26.34;76.83;99709.31;5120022;28;20458;-79
2021/08/05 01:57:40;;;;;;;22.73;6.75;;;;;;;26.32;77.37;99703.31;5136442;27;20038;-81
2021/08/05 02:00:12;;;;;;;19.70;5.70;;;;;;;26.19;77.69;99705.59;5119375;28;20028;-80
2021/08/05 02:02:43;;;;;;;19.23;6.15;;;;;;;26.09;78.34;99705.63;5119286;28;20092;-80
2021/08/05 02:05:20;;;;;;;16.27;5.80;;;;;;;26.09;78.92;99699.13;5119235;27;20032;-79
2021/08/05 02:08:07;;;;;;;13.88;6.75;;;;;;;26.12;78.79;99704.66;5120214;27;20055;-81
2021/08/05 02:10:42;;;;;;;15.65;8.50;;;;;;;26.12;79.00;99706.72;5119473;27;20528;-82
2021/08/05 02:13:17;;;;;;;21.58;7.90;;;;;;;26.15;79.18;99714.31;5120847;27;20466;-80
2021/08/05 02:15:52;;;;;;;17.80;8.10;;;;;;;26.18;78.50;99713.34;5120010;28;20023;-81
2021/08/05 02:18:19;;;;;;;15.15;5.90;;;;;;;26.12;78.34;99704.66;5120172;27;20067;-79
2021/08/05 02:20:47;;;;;;;12.73;5.40;;;;;;;26.02;78.53;99697.41;5119129;27;20098;-82
2021/08/05 02:23:21;;;;;;;14.93;6.13;;;;;;;26.04;78.29;99692.00;5119345;27;20466;-80
2021/08/05 02:25:51;;;;;;;15.73;7.03;;;;;;;26.04;78.39;99696.94;5118766;28;20074;-78
2021/08/05 02:28:22;;;;;;;18.00;5.80;;;;;;;26.01;78.74;99686.50;5119049;28;20088;-82
2021/08/05 02:30:51;;;;;;;19.77;5.70;;;;;;;26.06;78.53;99686.66;5118946;28;20024;-80
2021/08/05 02:33:20;;;;;;;19.02;5.72;;;;;;;26.13;78.78;99688.34;5102507;28;20118;-82
2021/08/05 02:35:47;;;;;;;19.33;6.53;;;;;;;26.03;78.85;99683.97;5119587;27;20032;-80
2021/08/05 02:38:16;;;;;;;11.55;5.35;;;;;;;26.04;79.12;99683.47;5136450;27;20416;-80
2021/08/05 02:40:47;;;;;;;15.27;4.82;;;;;;;25.91;80.42;99677.19;5136123;27;20066;-82
2021/08/05 02:43:13;;;;;;;13.15;5.40;;;;;;;25.92;80.63;99678.78;5119268;28;20036;-81
2021/08/05 02:45:44;;;;;;;17.45;6.10;;;;;;;25.95;80.37;99677.81;5119501;27;20035;-81
2021/08/05 02:48:15;;;;;;;18.85;6.82;;;;;;;25.97;80.27;99680.97;5117468;28;20114;-81
2021/08/05 02:50:44;;;;;;;19.83;5.75;;;;;;;25.87;80.74;99665.19;5115784;28;20384;-81
2021/08/05 02:53:13;;;;;;;16.40;5.80;;;;;;;25.84;80.67;99666.16;5116667;28;20035;-81
2021/08/05 02:55:39;;;;;;;13.43;6.47;;;;;;;25.67;81.51;99659.19;5116906;28;20028;-81
2021/08/05 02:58:07;;;;;;;18.25;6.82;;;;;;;25.65;81.19;99658.91;5115859;28;20477;-82
2021/08/05 03:00:33;;;;;;;18.35;6.25;;;;;;;25.71;80.80;99662.66;5115810;28;20035;-79
2021/08/05 03:03:04;;;;;;;16.85;5.47;;;;;;;25.71;80.73;99674.06;5115705;28;20062;-81
2021/08/05 03:05:29;;;;;;;16.52;6.60;;;;;;;25.61;81.13;99671.22;5115924;28;20032;-78
2021/08/05 03:07:58;;;;;;;11.95;5.13;;;;;;;25.70;80.50;99667.59;5115516;28;20027;-82
2021/08/05 03:10:26;;;;;;;15.30;6.07;;;;;;;25.73;79.94;99666.63;5132356;27;20031;-78
2021/08/05 03:12:57;;;;;;;18.80;5.80;;;;;;;25.71;79.91;99674.06;5115233;28;20020;-81
2021/08/05 03:15:25;;;;;;;22.25;6.60;;;;;;;25.53;81.25;99670.00;5115741;28;20118;-80
2021/08/05 03:17:56;;;;;;;17.25;5.65;;;;;;;25.49;81.21;99674.28;5114918;28;20142;-79
2021/08/05 03:20:24;;;;;;;19.73;6.00;;;;;;;25.54;80.96;99682.97;5115627;28;20063;-79
2021/08/05 03:22:50;;;;;;;16.88;5.72;;;;;;;25.66;80.34;99684.03;5116605;28;20046;-80
2021/08/05 03:25:18;;;;;;;16.20;5.88;;;;;;;25.69;79.82;99693.72;5114966;28;20445;-80
2021/08/05 03:27:46;;;;;;;18.17;6.90;;;;;;;25.68;80.02;99697.84;5115199;28;20031;-80
2021/08/05 03:30:16;;;;;;;18.58;5.80;;;;;;;25.71;80.01;99691.94;5132062;27;20092;-81
2021/08/05 03:32:44;;;;;;;22.05;6.45;;;;;;;25.71;80.16;99696.84;5115019;28;20535;-81
2021/08/05 03:35:12;;;;;;;13.15;5.63;;;;;;;25.70;79.92;99700.97;5114759;28;20030;-80
2021/08/05 03:37:38;;;;;;;14.40;5.35;;;;;;;25.74;80.29;99707.31;5115035;28;20035;-81
2021/08/05 03:40:04;;;;;;;16.75;6.47;;;;;;;25.76;79.62;99704.78;5131762;27;20370;-82
2021/08/05 03:42:30;;;;;;;17.58;7.80;;;;;;;25.67;79.55;99705.56;5114694;28;20024;-81
2021/08/05 03:45:01;;;;;;;17.33;7.07;;;;;;;25.73;79.71;99717.13;5114693;28;20027;-79
2021/08/05 03:47:29;;;;;;;19.20;6.75;;;;;;;25.69;79.64;99722.19;5114660;28;20068;-81
2021/08/05 03:49:56;;;;;;;16.15;7.20;;;;;;;25.71;79.59;99722.50;5114899;28;20047;-81
2021/08/05 03:52:24;;;;;;;18.50;6.95;;;;;;;25.80;79.53;99722.50;5115068;28;20103;-81
2021/08/05 03:54:56;;;;;;;17.42;6.57;;;;;;;25.76;79.63;99722.66;5114542;28;20035;-81
2021/08/05 03:57:21;;;;;;;22.90;10.00;;;;;;;25.82;79.70;99726.44;5114409;28;20043;-79
2021/08/05 03:59:53;;;;;;;17.67;7.20;;;;;;;25.71;80.17;99716.81;5114929;28;20035;-81
2021/08/05 04:02:21;;;;;;;20.23;5.68;;;;;;;25.63;80.65;99707.81;5114566;28;20374;-79
2021/08/05 04:04:52;;;;;;;21.02;7.40;;;;;;;25.56;80.62;99696.72;5114291;28;20053;-81
2021/08/05 04:07:18;;;;;;;19.23;6.93;;;;;;;25.76;80.96;99721.88;5131420;27;20039;-79
2021/08/05 04:09:48;;;;;;;11.60;6.10;;;;;;;25.74;81.46;99713.00;5131208;27;20027;-80
2021/08/05 04:12:19;;;;;;;14.32;6.45;;;;;;;25.77;81.60;99717.75;5113957;28;20027;-82
2021/08/05 04:14:53;;;;;;;20.02;6.05;;;;;;;25.76;81.25;99711.28;5113955;28;20034;-82
2021/08/05 04:17:20;;;;;;;26.30;7.22;;;;;;;25.78;80.49;99722.19;5113686;28;20459;-82
2021/08/05 04:19:46;;;;;;;17.73;7.05;;;;;;;25.78;80.91;99722.19;5113814;28;20020;-82
2021/08/05 04:22:17;;;;;;;13.27;5.57;;;;;;;25.81;80.38;99721.25;5113733;28;20043;-81
2021/08/05 04:24:43;;;;;;;13.25;6.63;;;;;;;25.76;80.73;99719.81;5114388;28;20374;-80
2021/08/05 04:27:10;;;;;;;19.85;6.88;;;;;;;25.75;80.56;99726.00;5114508;28;20046;-83
2021/08/05 04:29:38;;;;;;;19.08;7.10;;;;;;;25.87;79.54;99733.56;5113710;28;20084;-81
2021/08/05 04:32:04;;;;;;;20.30;7.13;;;;;;;25.84;79.27;99737.41;5113768;28;20028;-82
2021/08/05 04:34:32;;;;;;;16.42;7.93;;;;;;;25.92;79.03;99735.78;5131242;27;20084;-82
2021/08/05 04:36:58;;;;;;;17.83;7.53;;;;;;;26.00;78.39;99730.53;5130940;27;20035;-80
2021/08/05 04:39:26;;;;;;;20.98;7.53;;;;;;;25.94;78.13;99721.84;5131230;27;20370;-82
2021/08/05 04:41:56;;;;;;;17.60;6.85;;;;;;;26.01;77.47;99712.94;5113461;28;20043;-81
2021/08/05 04:44:24;;;;;;;19.38;7.22;;;;;;;25.98;77.61;99713.09;5113411;28;20016;-82
2021/08/05 04:46:52;;;;;;;16.00;6.65;;;;;;;25.88;76.83;99712.34;5113638;28;20038;-81
2021/08/05 04:49:24;;;;;;;18.05;7.68;;;;;;;26.01;76.36;99710.09;5113437;28;20035;-82
2021/08/05 04:51:53;;;;;;;14.35;6.20;;;;;;;26.13;75.66;99709.09;5114719;28;20462;-79
2021/08/05 04:54:23;;;;;;;11.43;6.38;;;;;;;26.01;75.71;99710.09;5114965;28;20023;-82
2021/08/05 04:56:54;;;;;;;12.30;6.45;;;;;;;25.99;75.87;99720.38;5113488;28;20536;-82
2021/08/05 04:59:22;;;;;;;17.13;7.50;;;;;;;26.12;75.71;99715.28;5114862;28;20028;-79
2021/08/05 05:01:48;;;;;;;20.27;8.75;;;;;;;26.21;75.29;99718.09;5113098;28;20067;-81
2021/08/05 05:04:16;;;;;;;18.10;7.20;;;;;;;26.28;74.94;99714.91;5113061;28;20065;-80
2021/08/05 05:06:44;;;;;;;15.13;6.20;;;;;;;26.25;74.36;99724.41;5113351;28;20027;-82
2021/08/05 05:09:12;;;;;;;18.58;6.72;;;;;;;26.35;74.44;99722.31;5113309;28;20474;-83
2021/08/05 05:11:43;;;;;;;14.38;6.75;;;;;;;26.27;73.18;99724.72;5112285;28;20080;-83
2021/08/05 05:14:14;;;;;;;14.52;5.97;;;;;;;26.45;72.98;99746.69;5113237;28;20062;-81
2021/08/05 05:16:40;;;;;;;16.02;6.72;;;;;;;26.45;72.29;99738.13;5113393;28;20484;-82
2021/08/05 05:19:10;;;;;;;15.70;6.85;;;;;;;26.56;72.22;99737.59;5113419;28;20048;-83
2021/08/05 05:21:39;;;;;;;12.98;6.50;;;;;;;26.47;73.02;99741.28;5113933;28;20020;-82
2021/08/05 05:24:07;;;;;;;20.13;6.95;;;;;;;27.15;70.45;99750.06;5113685;28;20042;-80
2021/08/05 05:26:32;;;;;;;18.38;7.40;;;;;;;27.28;69.29;99743.34;5113229;28;20028;-80
2021/08/05 05:29:00;;;;;;;12.57;6.32;;;;;;;27.49;68.10;99750.75;5113234;28;20164;-80
2021/08/05 05:31:31;;;;;;;15.52;6.47;;;;;;;28.13;66.60;99744.41;5112650;28;20028;-83
2021/08/05 05:34:02;;;;;;;14.60;6.40;;;;;;;28.42;63.86;99732.13;5113243;28;20027;-83
2021/08/05 05:36:32;;;;;;;16.88;6.70;;;;;;;28.74;61.79;99731.53;5112706;28;20027;-80
2021/08/05 05:39:03;;;;;;;14.40;6.40;;;;;;;29.44;59.10;99737.13;5113251;28;20426;-83
2021/08/05 05:41:28;;;;;;;13.55;5.75;;;;;;;29.76;57.31;99740.88;5112658;28;20031;-83
2021/08/05 05:43:54;;;;;;;17.33;6.80;;;;;;;29.69;57.04;99741.34;5113029;28;20036;-83
2021/08/05 05:46:21;;;;;;;10.13;5.15;;;;;;;30.58;55.02;99749.94;5112445;28;20054;-83
2021/08/05 05:48:47;;;;;;;11.73;6.38;;;;;;;31.00;53.48;99751.22;5129633;28;20024;-80
2021/08/05 05:51:12;;;;;;;11.30;4.93;;;;;;;31.14;53.58;99753.13;5129604;28;20028;-82
2021/08/05 05:53:38;;;;;;;12.95;6.25;;;;;;;31.30;52.67;99761.03;5112271;28;20077;-82
2021/08/05 05:56:04;;;;;;;13.95;6.85;;;;;;;31.42;52.49;99770.50;5112439;28;20054;-82
2021/08/05 05:58:33;;;;;;;13.88;6.18;;;;;;;31.62;51.54;99785.97;5112413;28;20092;-83
2021/08/05 06:00:59;;;;;;;15.70;6.97;;;;;;;31.25;52.65;99781.94;5113165;28;20441;-79
2021/08/05 06:03:26;;;;;;;14.65;6.20;;;;;;;31.75;51.00;99774.78;5112302;28;20063;-84
2021/08/05 06:05:54;;;;;;;13.90;5.22;;;;;;;31.72;50.84;99775.81;5112250;28;20080;-82
2021/08/05 06:08:25;;;;;;;9.73;4.82;;;;;;;31.02;52.04;99780.22;5113904;28;20057;-79
2021/08/05 06:10:55;;;;;;;13.98;5.53;;;;;;;30.75;52.18;99779.56;5129045;28;20180;-83
2021/08/05 06:13:23;;;;;;;9.68;4.28;;;;;;;30.97;51.57;99786.72;5112293;28;20031;-83
2021/08/05 06:15:51;;;;;;;10.60;4.18;;;;;;;30.82;50.92;99794.72;5112694;28;20138;-82
2021/08/05 06:18:16;;;;;;;12.45;3.47;;;;;;;30.63;51.57;99800.84;5113322;28;20105;-81
2021/08/05 06:20:45;;;;;;;6.72;3.72;;;;;;;30.84;51.16;99795.81;5112229;28;20028;-84
2021/08/05 06:23:13;;;;;;;8.32;4.10;;;;;;;30.14;53.34;99788.44;5113360;28;20035;-83
2021/08/05 06:25:41;;;;;;;9.93;4.75;;;;;;;29.82;53.62;99789.66;5116353;28;20024;-80
2021/08/05 06:28:09;;;;;;;9.30;4.05;;;;;;;29.62;54.89;99788.44;5116055;28;20030;-79
2021/08/05 06:30:35;;;;;;;11.65;4.53;;;;;;;28.94;57.07;99786.00;5116134;28;20024;-84
2021/08/05 06:33:03;;;;;;;14.23;4.30;;;;;;;29.27;55.35;99779.13;5116344;28;20152;-82
2021/08/05 06:35:29;;;;;;;8.70;3.70;;;;;;;29.81;53.93;99771.69;5116168;28;20423;-85
2021/08/05 06:37:59;;;;;;;16.83;4.75;;;;;;;30.47;53.51;99778.56;5115861;28;20042;-84
2021/08/05 06:40:27;;;;;;;5.47;3.22;;;;;;;30.82;52.06;99784.03;5115629;28;20030;-82
2021/08/05 06:42:54;;;;;;;6.25;3.78;;;;;;;31.42;50.75;99786.94;5115374;28;20031;-83
2021/08/05 06:45:22;;;;;;;8.95;3.10;;;;;;;31.63;50.59;99793.28;5112434;28;20048;-81
2021/08/05 06:47:50;;;;;;;9.88;3.30;;;;;;;31.20;51.21;99788.41;5115662;28;20032;-83
2021/08/05 06:50:19;;;;;;;14.25;3.22;;;;;;;31.23;50.35;99783.72;5115413;28;20031;-85
2021/08/05 06:52:51;;;;;;;9.27;2.58;;;;;;;31.83;48.69;99790.25;5092285;28;20135;-79
2021/08/05 06:55:17;;;;;;;8.48;2.75;;;;;;;31.99;46.82;99798.09;5115849;28;20046;-83
2021/08/05 06:57:46;;;;;;;6.43;2.42;;;;;;;32.00;46.28;99798.88;5132592;27;20102;-84
2021/08/05 07:00:12;;;;;;;5.82;2.30;;;;;;;32.02;46.36;99799.94;5115657;28;20027;-82
2021/08/05 07:02:40;;;;;;;6.78;2.25;;;;;;;32.11;46.05;99810.41;5133034;27;20040;-83
2021/08/05 07:05:14;;;;;;;6.13;2.15;;;;;;;32.58;45.91;99797.09;5132414;27;20073;-80
2021/08/05 07:07:39;;;;;;;7.97;2.90;;;;;;;31.90;47.69;99771.66;5116955;28;20051;-83
2021/08/05 07:10:06;;;;;;;8.60;2.20;;;;;;;32.41;47.03;99798.44;5132741;27;20123;-83
2021/08/05 07:12:32;;;;;;;5.38;2.22;;;;;;;32.14;47.60;99795.00;5116733;28;20395;-81
2021/08/05 07:15:01;;;;;;;6.90;2.60;;;;;;;32.36;46.42;99793.44;5115195;28;20118;-79
2021/08/05 07:17:32;;;;;;;5.70;2.85;;;;;;;31.91;46.90;99804.91;5115532;28;20056;-82
2021/08/05 07:20:01;;;;;;;4.70;2.05;;;;;;;32.06;46.08;99808.31;5115560;28;20115;-84
2021/08/05 07:22:29;;;;;;;5.15;2.40;;;;;;;32.61;45.15;99795.28;5115593;28;20379;-83
2021/08/05 07:25:00;;;;;;;5.50;2.30;;;;;;;32.63;44.79;99807.03;5115098;28;20032;-84
2021/08/05 07:27:25;;;;;;;5.75;1.80;;;;;;;32.33;44.26;99798.94;5115544;28;20038;-82
2021/08/05 07:29:55;;;;;;;4.18;1.88;;;;;;;31.45;47.42;99806.06;5114906;28;20390;-85
2021/08/05 07:32:26;;;;;;;4.18;2.17;;;;;;;32.32;45.78;99808.84;5115473;28;20028;-79
2021/08/05 07:34:55;;;;;;;5.55;2.30;;;;;;;33.01;43.41;99801.75;5114011;28;20034;-82
2021/08/05 07:37:26;;;;;;;5.22;2.05;;;;;;;33.09;42.15;99805.69;5115352;28;20024;-81
2021/08/05 07:39:54;;;;;;;5.57;2.20;;;;;;;33.51;42.20;99818.91;5115078;28;20034;-84
2021/08/05 07:42:22;;;;;;;5.90;2.22;;;;;;;33.55;41.96;99812.84;5115504;28;20122;-83
2021/08/05 07:44:53;;;;;;;5.80;2.03;;;;;;;34.25;39.66;99816.34;5114783;28;20031;-84
2021/08/05 07:47:24;;;;;;;6.05;2.28;;;;;;;32.93;42.64;99818.03;5114298;28;20031;-82
2021/08/05 07:49:53;;;;;;;5.95;2.08;;;;;;;33.07;41.88;99814.03;5115827;28;20047;-82
2021/08/05 07:52:24;;;;;;;4.45;1.85;;;;;;;34.08;40.69;99825.94;5115020;28;20034;-84
2021/08/05 07:54:58;;;;;;;10.60;2.70;;;;;;;33.06;42.31;99819.03;5131864;27;20180;-82
2021/08/05 07:57:23;;;;;;;6.63;1.98;;;;;;;33.50;41.11;99828.06;5114401;28;20116;-81
2021/08/05 07:59:52;;;;;;;5.82;2.22;;;;;;;34.26;38.76;99836.06;5113985;28;20078;-83
2021/08/05 08:02:26;;;;;;;7.60;1.88;;;;;;;33.79;39.48;99830.28;5114046;28;20485;-84
2021/08/05 08:04:57;;;;;;;4.72;1.80;;;;;;;33.58;39.94;99823.31;5114333;27;20126;-81
2021/08/05 08:07:30;;;;;;;5.93;1.73;;;;;;;33.57;40.30;99825.44;5113991;28;20023;-81
2021/08/05 08:09:59;;;;;;;4.47;1.98;;;;;;;33.20;41.02;99839.44;5113915;28;20042;-84
2021/08/05 08:12:25;;;;;;;5.72;1.98;;;;;;;33.09;41.18;99841.03;5113880;28;20039;-82
2021/08/05 08:14:54;;;;;;;3.42;1.75;;;;;;;32.15;43.01;99828.22;5114121;28;20031;-81
2021/08/05 08:17:22;;;;;;;5.43;2.17;;;;;;;32.56;42.82;99833.50;5113633;28;20062;-84
2021/08/05 08:19:48;;;;;;;5.07;2.70;;;;;;;33.41;40.62;99831.25;5113906;28;20115;-82
2021/08/05 08:22:19;;;;;;;3.53;1.63;;;;;;;33.54;39.43;99845.88;5113845;28;20126;-81
2021/08/05 08:24:50;;;;;;;3.50;1.75;;;;;;;33.80;38.93;99831.84;5115175;27;20039;-80
2021/08/05 08:27:16;;;;;;;3.97;1.57;;;;;;;34.25;38.10;99843.16;5113899;28;20031;-83
2021/08/05 08:29:47;;;;;;;2.63;1.83;;;;;;;33.72;39.06;99842.41;5113725;28;20042;-82
2021/08/05 08:32:12;;;;;;;4.00;1.70;;;;;;;33.60;39.35;99832.22;5113673;28;20027;-81
2021/08/05 08:34:44;;;;;;;2.80;1.67;;;;;;;33.31;40.13;99840.19;5113697;28;20024;-84
2021/08/05 08:37:09;;;;;;;6.47;2.05;;;;;;;33.27;39.83;99844.66;5113509;28;20038;-82
2021/08/05 08:39:41;;;;;;;5.72;1.45;;;;;;;32.24;41.73;99842.34;5113388;28;20035;-83
2021/08/05 08:42:10;;;;;;;6.57;1.95;;;;;;;33.36;39.58;99847.25;5113517;28;20020;-82
2021/08/05 08:44:38;;;;;;;4.53;1.90;;;;;;;32.89;40.08;99854.97;5113870;28;20042;-83
2021/08/05 08:47:11;;;;;;;5.28;2.13;;;;;;;33.98;37.83;99855.66;5112490;28;20084;-82
2021/08/05 08:49:41;;;;;;;3.47;1.50;;;;;;;34.57;36.31;99852.13;5113382;28;20526;-82
2021/08/05 08:52:11;;;;;;;5.70;1.55;;;;;;;33.89;38.18;99845.97;5113332;28;20020;-82
2021/08/05 08:54:44;;;;;;;4.25;2.00;;;;;;;33.94;37.43;99840.75;5130588;27;20028;-82
2021/08/05 08:57:14;;;;;;;4.95;1.90;;;;;;;33.73;37.19;99846.06;5113153;28;20084;-82
2021/08/05 08:59:45;;;;;;;4.15;2.22;;;;;;;34.24;35.93;99847.34;5114694;28;20116;-82
2021/08/05 09:02:17;;;;;;;3.60;1.73;;;;;;;34.42;34.35;99848.00;5114528;28;20085;-83
2021/08/05 09:04:46;;;;;;;3.65;1.58;;;;;;;34.56;34.39;99858.41;5114154;28;20027;-82
2021/08/05 09:07:12;;;;;;;3.70;1.40;;;;;;;34.55;34.55;99845.28;5113143;28;20031;-81
2021/08/05 09:09:43;;;;;;;1.58;1.33;;;;;;;34.73;33.84;99861.94;5113030;28;20031;-80
2021/08/05 09:12:15;;;;;;;4.50;1.27;;;;;;;33.89;35.04;99854.63;5112913;28;20546;-83
2021/08/05 09:14:49;;;;;;;3.65;1.65;;;;;;;34.17;34.38;99864.47;5113612;28;20464;-81
2021/08/05 09:17:22;;;;;;;4.07;1.70;;;;;;;34.43;33.90;99869.78;5112431;28;20031;-80
2021/08/05 09:19:51;;;;;;;6.30;1.85;;;;;;;34.08;34.99;99872.09;5113304;28;20076;-82
2021/08/05 09:22:33;;;;;;;3.85;1.30;;;;;;;33.70;35.87;99870.19;5130425;27;20039;-81
2021/08/05 09:25:28;;;;;;;7.00;1.80;;;;;;;33.44;36.95;99870.56;5113360;28;20062;-83
2021/08/05 09:27:59;;;;;;;2.67;1.40;;;;;;;34.41;35.79;99881.84;5114384;27;20100;-81
2021/08/05 09:30:38;;;;;;;2.97;1.30;;;;;;;34.26;35.83;99862.03;5112973;28;20118;-84
2021/08/05 09:33:05;;;;;;;5.68;1.38;;;;;;;33.83;36.05;99874.06;5114348;28;20028;-81
2021/08/05 09:35:34;;;;;;;4.20;1.50;;;;;;;33.80;36.20;99880.91;5113714;28;20107;-82
2021/08/05 09:38:20;;;;;;;5.30;1.67;;;;;;;32.95;38.26;99881.66;5129542;28;20066;-81
2021/08/05 09:40:50;;;;;;;3.20;1.42;;;;;;;33.17;37.88;99896.03;5112788;28;20027;-82
2021/08/05 09:43:26;;;;;;;2.78;1.50;;;;;;;34.01;36.47;99889.22;5113781;28;20427;-83
2021/08/05 09:45:55;;;;;;;2.72;1.35;;;;;;;34.50;34.00;99884.44;5112374;28;20030;-84
2021/08/05 09:48:41;;;;;;;4.15;1.38;;;;;;;34.28;35.04;99882.47;5113011;28;20038;-83
2021/08/05 09:51:06;;;;;;;4.70;1.75;;;;;;;33.69;35.15;99885.94;5113826;28;20023;-84
2021/08/05 09:53:32;;;;;;;3.13;1.42;;;;;;;33.61;33.01;99898.06;5112988;28;20031;-84
2021/08/05 09:56:11;;;;;;;2.30;1.20;;;;;;;34.32;33.44;99908.97;5112406;28;20382;-83
2021/08/05 09:58:39;;;;;;;2.00;1.00;;;;;;;34.08;31.68;99905.97;5131857;27;20095;-79
2021/08/05 10:01:08;;;;;;;2.40;0.80;;;;;;;34.34;29.79;99899.78;5116667;28;20080;-83
2021/08/05 10:03:40;;;;;;;2.13;1.10;;;;;;;34.24;31.07;99893.53;5116672;28;20031;-82
2021/08/05 10:06:08;;;;;;;2.72;1.17;;;;;;;33.81;31.72;99899.00;5116832;28;20100;-85
2021/08/05 10:08:38;;;;;;;1.00;0.85;;;;;;;34.54;30.88;99902.28;5116423;28;20028;-82
2021/08/05 10:11:05;;;;;;;4.55;1.05;;;;;;;34.76;29.70;99897.63;5133541;27;20051;-83
2021/08/05 10:13:35;;;;;;;3.10;1.10;;;;;;;33.84;31.66;99892.16;5116512;27;20040;-82
2021/08/05 10:16:03;;;;;;;2.03;0.80;;;;;;;34.65;29.10;99901.41;5116971;28;20027;-85
2021/08/05 10:18:30;;;;;;;2.42;1.00;;;;;;;34.76;28.12;99897.63;5133187;27;20511;-82
2021/08/05 10:20:58;;;;;;;3.22;1.05;;;;;;;33.87;31.46;99891.88;5116451;28;20378;-80
2021/08/05 10:23:30;;;;;;;3.08;0.98;;;;;;;34.05;31.69;99896.28;5117815;28;20035;-79
2021/08/05 10:26:01;;;;;;;1.65;1.02;;;;;;;33.91;31.84;99903.16;5117021;27;20118;-83
2021/08/05 10:28:33;;;;;;;5.68;1.20;;;;;;;33.26;32.39;99904.41;5117676;28;20039;-80
2021/08/05 10:31:08;;;;;;;2.53;1.05;;;;;;;33.20;34.19;99897.88;5117519;28;20437;-84
2021/08/05 10:33:36;;;;;;;8.02;1.10;;;;;;;32.70;34.63;99897.88;5117477;28;20023;-81
2021/08/05 10:36:02;;;;;;;3.22;1.50;;;;;;;32.83;35.16;99896.06;5116084;28;20055;-81
2021/08/05 10:38:34;;;;;;;1.13;0.98;;;;;;;32.65;35.17;99896.56;5117739;27;20458;-84
2021/08/05 10:41:06;;;;;;;3.72;1.30;;;;;;;32.37;35.36;99890.78;5116630;28;20347;-82
2021/08/05 10:43:35;;;;;;;3.03;1.27;;;;;;;32.32;35.39;99895.22;5112537;28;20031;-81
2021/08/05 10:46:04;;;;;;;3.53;1.13;;;;;;;32.49;36.44;99894.47;5132904;27;20028;-81
2021/08/05 10:48:32;;;;;;;5.10;1.13;;;;;;;32.42;35.47;99883.47;5116204;28;20066;-79
2021/08/05 10:50:57;;;;;;;2.05;1.17;;;;;;;32.10;35.08;99903.81;5115921;28;20080;-82
2021/08/05 10:53:32;;;;;;;1.75;1.10;;;;;;;32.06;34.71;99903.25;5115534;28;20382;-83
2021/08/05 10:56:24;;;;;;;1.10;0.90;;;;;;;32.59;34.42;99895.78;5115601;28;20550;-81
2021/08/05 10:59:15;;;;;;;2.95;1.17;;;;;;;31.68;36.10;99885.31;5110644;28;20035;-84
2021/08/05 11:01:53;;;;;;;4.05;1.33;;;;;;;32.71;35.26;99890.84;5115345;28;20028;-81
2021/08/05 11:04:41;;;;;;;4.65;1.75;;;;;;;32.75;35.70;99892.13;5115936;28;20027;-79
2021/08/05 11:07:31;;;;;;;2.38;1.23;;;;;;;33.09;34.28;99898.69;5115419;28;20092;-84
2021/08/05 11:10:15;;;;;;;5.22;1.20;;;;;;;33.05;34.69;99895.28;5114131;28;20101;-83
2021/08/05 11:13:12;;;;;;;4.53;1.90;;;;;;;32.66;36.29;99889.53;5114830;28;20123;-82
2021/08/05 11:15:39;;;;;;;3.88;1.15;;;;;;;32.72;36.21;99875.91;5115030;28;20389;-80
2021/08/05 11:18:14;;;;;;;1.95;0.98;;;;;;;33.22;35.88;99885.81;5114945;28;20100;-80
2021/08/05 11:20:54;;;;;;;4.88;1.42;;;;;;;32.42;36.83;99895.00;5117182;28;20035;-83
2021/08/05 11:23:25;;;;;;;2.85;1.60;;;;;;;31.97;37.58;99897.75;5115700;28;20111;-79
2021/08/05 11:25:54;;;;;;;3.83;1.33;;;;;;;31.84;38.57;99889.59;5115809;28;20023;-82
2021/08/05 11:28:34;;;;;;;3.05;1.50;;;;;;;31.76;38.15;99869.16;5114946;28;20497;-82
2021/08/05 11:31:06;;;;;;;5.63;2.40;;;;;;;31.09;40.05;99868.00;5131888;27;20023;-81
2021/08/05 11:33:40;;;;;;;;;;;;;;;31.57;38.84;99876.66;5115336;28;20051;-83
2021/08/05 11:36:17;;;;;;;4.40;1.60;;;;;;;30.36;40.10;99864.53;5115221;28;19907;-82
2021/08/05 11:39:00;;;;;;;3.13;1.58;;;;;;;31.60;39.24;99881.38;5115435;28;20444;-82
2021/08/05 11:41:43;;;;;;;2.03;1.17;;;;;;;31.81;38.76;99879.94;5115163;28;20028;-84
2021/08/05 11:44:28;;;;;;;;;;;;;;;31.40;39.09;99884.41;5115434;28;20382;-83